Погода Гирейшина 2 недели

Витебская область, Белоруссия

24 мая-06 июня
  • 24мая
    Сегодня
    +12°
    +25°
    Ясно и безоблачно
    ВремяПогодаТемператураВлажностьДавлениеВетер, м/сВероятность осадков
    00:00Практически безоблачно+16°C80 %757 мм3.1 м/с2 %
    03:00Ясно и безоблачно+14°C73 %757 мм3.9 м/с2 %
    06:00Ясно и безоблачно+13°C71 %758 мм3.5 м/с2 %
    09:00Ясно и безоблачно+18°C66 %759 мм4.1 м/с2 %
    12:00Ясно и безоблачно+23°C55 %759 мм4.4 м/с2 %
    15:00Ясно и безоблачно+24°C47 %758 мм4.8 м/с2 %
    18:00Ясно и безоблачно+24°C49 %758 мм4.4 м/с2 %
    21:00Ясно и безоблачно+19°C66 %758 мм2.7 м/с2 %
  • 25мая
    Суббота
    +12°
    +26°
    Ясно и безоблачно
    ВремяПогодаТемператураВлажностьДавлениеВетер, м/сВероятность осадков
    00:00Ясно и безоблачно+16°C67 %758 мм3.9 м/с2 %
    03:00Ясно и безоблачно+13°C72 %758 мм3.0 м/с2 %
    06:00Ясно и безоблачно+12°C79 %758 мм2.7 м/с2 %
    09:00Ясно и безоблачно+18°C65 %758 мм2.7 м/с2 %
    12:00Ясно и безоблачно+23°C51 %758 мм3.0 м/с2 %
    15:00Ясно и безоблачно+25°C43 %757 мм3.0 м/с2 %
    18:00Небольшая облачность+24°C44 %756 мм3.2 м/с7 %
    21:00Ясно и безоблачно+19°C73 %757 мм2.4 м/с3 %
  • 26мая
    Воскресенье
    +13°
    +25°
    Ясно и безоблачно
    ВремяПогодаТемператураВлажностьДавлениеВетер, м/сВероятность осадков
    00:00Ясно и безоблачно+15°C82 %756 мм2.4 м/с2 %
    03:00Ясно и безоблачно+13°C87 %756 мм2.5 м/с2 %
    06:00Ясно и безоблачно+14°C90 %757 мм1.3 м/с1 %
    09:00Ясно и безоблачно+19°C70 %757 мм0.5 м/с2 %
    12:00Ясно и безоблачно+24°C45 %758 мм0.9 м/с2 %
    15:00Ясно и безоблачно+25°C41 %757 мм1.2 м/с2 %
    18:00Практически безоблачно+25°C39 %756 мм1.3 м/с2 %
    21:00Ясно и безоблачно+21°C64 %756 мм1.9 м/с2 %
  • 27мая
    Понедельник
    +13°
    +25°
    Ясно и безоблачно
    ВремяПогодаТемператураВлажностьДавлениеВетер, м/сВероятность осадков
    00:00Ясно и безоблачно+16°C80 %756 мм2.2 м/с2 %
    03:00Ясно и безоблачно+15°C81 %757 мм2.4 м/с2 %
    06:00Ясно и безоблачно+15°C84 %757 мм1.7 м/с2 %
    09:00Ясно и безоблачно+20°C61 %757 мм0.8 м/с2 %
    12:00Ясно и безоблачно+24°C38 %757 мм1.7 м/с2 %
    15:00Ясно и безоблачно+25°C38 %756 мм2.2 м/с2 %
    18:00Ясно и безоблачно+24°C42 %756 мм1.9 м/с11 %
    21:00Ясно и безоблачно+21°C65 %755 мм1.9 м/с7 %
  • 28мая
    Вторник
    +13°
    +26°
    Ясно и безоблачно
    ВремяПогодаТемператураВлажностьДавлениеВетер, м/сВероятность осадков
    00:00Ясно и безоблачно+16°C79 %755 мм2.4 м/с2 %
    03:00Ясно и безоблачно+14°C88 %755 мм2.5 м/с2 %
    06:00Ясно и безоблачно+15°C91 %755 мм1.1 м/с2 %
    09:00Ясно и безоблачно+21°C66 %755 мм0.9 м/с2 %
    12:00Ясно и безоблачно+24°C47 %755 мм2.2 м/с7 %
    15:00Ясно и безоблачно+25°C47 %755 мм2.3 м/с15 %
    18:00Практически безоблачно+25°C47 %754 мм1.9 м/с25 %
    21:00Ясно и безоблачно+21°C70 %754 мм1.7 м/с15 %
Мы используем cookies
Соглашаюсь